createdAt,value
2017-02-01T00:00:13.711Z,89.83
2017-02-01T00:01:14.087Z,90.09
2017-02-01T00:02:14.755Z,89.86
2017-02-01T00:03:15.269Z,89.94
2017-02-01T00:04:15.793Z,90.15
2017-02-01T00:05:16.162Z,90.28
2017-02-01T00:06:16.689Z,90.36
2017-02-01T00:07:17.349Z,90.39
2017-02-01T00:08:17.740Z,90.47
2017-02-01T00:09:18.387Z,90.34
2017-02-01T00:10:18.766Z,90.31
2017-02-01T00:11:19.423Z,90.20
2017-02-01T00:12:19.940Z,90.28
2017-02-01T00:13:20.458Z,90.20
2017-02-01T00:14:20.838Z,90.15
2017-02-01T00:15:21.514Z,90.23
2017-02-01T00:16:21.870Z,90.31
2017-02-01T00:17:22.389Z,90.36
2017-02-01T00:18:23.061Z,90.47
2017-02-01T00:19:23.588Z,90.36
2017-02-01T00:20:23.958Z,90.36
2017-02-01T00:21:24.481Z,90.36
2017-02-01T00:22:25.193Z,90.28
2017-02-01T00:23:25.800Z,90.15
2017-02-01T00:24:26.024Z,89.99
2017-02-01T00:25:26.683Z,90.02
2017-02-01T00:26:27.067Z,89.94
2017-02-01T00:27:27.737Z,89.78
2017-02-01T00:28:28.105Z,89.78
2017-02-01T00:29:28.763Z,89.67
2017-02-01T00:30:29.283Z,89.51
2017-02-01T00:31:29.649Z,89.35
2017-02-01T00:32:30.171Z,89.40
2017-02-01T00:33:30.828Z,89.16
2017-02-01T00:34:31.207Z,89.16
2017-02-01T00:35:31.877Z,89.11
2017-02-01T00:36:32.286Z,89.14
2017-02-01T00:37:32.787Z,89.22
2017-02-01T00:38:33.465Z,89.24
2017-02-01T00:39:33.964Z,89.08
2017-02-01T00:40:34.481Z,89.11
2017-02-01T00:41:34.896Z,88.95
2017-02-01T00:42:35.520Z,89.00
2017-02-01T00:43:36.050Z,88.89
2017-02-01T00:44:36.412Z,88.79
2017-02-01T00:45:36.932Z,88.73
2017-02-01T00:46:37.445Z,88.76
2017-02-01T00:47:38.116Z,88.73
2017-02-01T00:48:38.650Z,88.79
2017-02-01T00:49:39.005Z,88.87
2017-02-01T00:50:39.669Z,88.44
2017-02-01T00:51:40.187Z,88.76
2017-02-01T00:52:40.569Z,88.36
2017-02-01T00:53:41.127Z,88.17
2017-02-01T00:54:41.613Z,88.04
2017-02-01T00:55:42.272Z,88.15
2017-02-01T00:56:42.659Z,88.31
2017-02-01T00:57:43.175Z,88.20
2017-02-01T00:58:43.698Z,87.96
2017-02-01T00:59:44.201Z,88.23
2017-02-01T01:00:44.738Z,87.93
2017-02-01T01:01:45.242Z,88.33
2017-02-01T01:02:45.953Z,88.04
2017-02-01T01:03:46.422Z,87.90
2017-02-01T01:04:46.806Z,87.90
2017-02-01T01:05:47.465Z,88.15
2017-02-01T01:06:47.987Z,88.07
2017-02-01T01:07:48.356Z,87.93
2017-02-01T01:08:48.890Z,88.09
2017-02-01T01:09:49.413Z,88.01
2017-02-01T01:10:49.919Z,87.61
2017-02-01T01:11:50.576Z,87.43
2017-02-01T01:12:51.098Z,86.94
2017-02-01T01:13:51.490Z,85.88
2017-02-01T01:14:52.138Z,86.09
2017-02-01T01:15:52.656Z,86.25
2017-02-01T01:16:53.197Z,86.71
2017-02-01T01:17:53.570Z,86.89
2017-02-01T01:18:54.104Z,86.89
2017-02-01T01:19:54.596Z,87.02
2017-02-01T01:20:55.110Z,86.65
2017-02-01T01:21:55.641Z,86.87
2017-02-01T01:22:56.301Z,86.94
2017-02-01T01:23:56.832Z,86.94
2017-02-01T01:24:57.190Z,87.05
2017-02-01T01:25:57.723Z,87.02
2017-02-01T01:26:58.246Z,87.24
2017-02-01T01:27:58.743Z,87.26
2017-02-01T01:28:59.275Z,87.29
2017-02-01T01:29:59.790Z,87.43
2017-02-01T01:31:00.308Z,87.51
2017-02-01T01:32:00.963Z,87.59
2017-02-01T01:33:01.350Z,87.80
2017-02-01T01:34:01.874Z,87.80
2017-02-01T01:35:02.394Z,87.80
2017-02-01T01:36:03.036Z,87.82
2017-02-01T01:37:03.417Z,87.90
2017-02-01T01:38:04.088Z,87.93
2017-02-01T01:39:04.597Z,87.69
2017-02-01T01:40:05.123Z,87.88
2017-02-01T01:41:05.640Z,88.04
2017-02-01T01:42:06.023Z,87.74
2017-02-01T01:43:06.820Z,87.59
2017-02-01T01:44:07.200Z,87.77
2017-02-01T01:45:07.709Z,87.80
2017-02-01T01:46:08.077Z,87.90
2017-02-01T01:47:08.745Z,87.82
2017-02-01T01:48:09.123Z,87.69
2017-02-01T01:49:09.643Z,87.72
2017-02-01T01:50:10.298Z,87.80
2017-02-01T01:51:10.817Z,87.80
2017-02-01T01:52:11.203Z,87.85
2017-02-01T01:53:11.861Z,87.96
2017-02-01T01:54:12.228Z,88.04
2017-02-01T01:55:12.764Z,87.82
2017-02-01T01:56:13.411Z,87.90
2017-02-01T01:57:13.788Z,87.80
2017-02-01T01:58:14.453Z,87.80
2017-02-01T01:59:14.978Z,87.88
2017-02-01T02:00:15.510Z,87.82
2017-02-01T02:01:15.884Z,87.82
2017-02-01T02:02:16.537Z,87.80
2017-02-01T02:03:17.078Z,87.82
2017-02-01T02:04:17.445Z,87.77
2017-02-01T02:05:17.965Z,87.74
2017-02-01T02:06:18.469Z,87.88
2017-02-01T02:07:19.004Z,87.69
2017-02-01T02:08:19.653Z,87.77
2017-02-01T02:09:20.034Z,87.77
2017-02-01T02:10:20.547Z,87.82
2017-02-01T02:11:21.060Z,87.96
2017-02-01T02:12:21.597Z,87.96
2017-02-01T02:13:22.107Z,87.96
2017-02-01T02:14:22.763Z,87.88
2017-02-01T02:15:23.145Z,88.12
2017-02-01T02:16:23.665Z,88.12
2017-02-01T02:17:24.326Z,88.12
2017-02-01T02:18:24.845Z,87.82
2017-02-01T02:19:25.225Z,87.90
2017-02-01T02:20:25.882Z,88.15
2017-02-01T02:21:26.255Z,88.09
2017-02-01T02:22:26.927Z,87.59
2017-02-01T02:23:27.300Z,87.82
2017-02-01T02:24:27.956Z,87.32
2017-02-01T02:25:28.478Z,87.56
2017-02-01T02:26:28.857Z,87.32
2017-02-01T02:27:29.513Z,87.74
2017-02-01T02:28:30.031Z,86.79
2017-02-01T02:29:30.553Z,87.08
2017-02-01T02:30:30.942Z,87.00
2017-02-01T02:31:31.438Z,87.34
2017-02-01T02:32:31.963Z,87.51
2017-02-01T02:33:32.488Z,87.40
2017-02-01T02:34:33.028Z,87.34
2017-02-01T02:35:33.569Z,87.24
2017-02-01T02:36:34.043Z,87.34
2017-02-01T02:37:34.574Z,87.08
2017-02-01T02:38:35.128Z,87.18
2017-02-01T02:39:35.599Z,87.34
2017-02-01T02:40:36.173Z,87.43
2017-02-01T02:41:36.799Z,87.45
2017-02-01T02:42:37.318Z,87.61
2017-02-01T02:43:37.846Z,87.48
2017-02-01T02:44:38.213Z,87.59
2017-02-01T02:45:38.741Z,87.45
2017-02-01T02:46:39.397Z,87.51
2017-02-01T02:47:39.921Z,87.67
2017-02-01T02:48:40.432Z,87.69
2017-02-01T02:49:40.810Z,87.69
2017-02-01T02:50:41.482Z,87.48
2017-02-01T02:51:42.000Z,87.48
2017-02-01T02:52:42.380Z,87.40
2017-02-01T02:53:42.896Z,87.40
2017-02-01T02:54:43.551Z,87.02
2017-02-01T02:55:44.068Z,86.81
2017-02-01T02:56:44.583Z,86.84
2017-02-01T02:57:44.982Z,87.05
2017-02-01T02:58:45.499Z,87.10
2017-02-01T02:59:46.147Z,87.10
2017-02-01T03:00:46.660Z,87.24
2017-02-01T03:01:47.050Z,87.29
2017-02-01T03:02:47.710Z,87.05
2017-02-01T03:03:48.259Z,87.10
2017-02-01T03:04:48.754Z,86.71
2017-02-01T03:05:49.135Z,86.97
2017-02-01T03:06:49.640Z,87.08
2017-02-01T03:07:50.294Z,86.71
2017-02-01T03:08:50.809Z,86.65
2017-02-01T03:09:51.194Z,86.41
2017-02-01T03:10:51.704Z,86.07
2017-02-01T03:11:52.375Z,86.25
2017-02-01T03:12:52.742Z,86.30
2017-02-01T03:13:53.407Z,86.25
2017-02-01T03:14:53.778Z,85.53
2017-02-01T03:15:54.307Z,85.48
2017-02-01T03:16:54.979Z,85.66
2017-02-01T03:17:55.352Z,85.91
2017-02-01T03:18:55.998Z,86.04
2017-02-01T03:19:56.528Z,86.25
2017-02-01T03:20:56.898Z,86.52
2017-02-01T03:21:57.433Z,86.38
2017-02-01T03:22:58.091Z,86.87
2017-02-01T03:23:58.474Z,86.52
2017-02-01T03:24:58.997Z,86.71
2017-02-01T03:25:59.655Z,86.57
2017-02-01T03:27:00.192Z,86.38
2017-02-01T03:28:00.708Z,86.41
2017-02-01T03:29:01.085Z,86.73
2017-02-01T03:30:01.594Z,86.76
2017-02-01T03:31:02.252Z,86.79
2017-02-01T03:32:02.626Z,86.84
2017-02-01T03:33:03.156Z,86.94
2017-02-01T03:34:03.659Z,86.87
2017-02-01T03:35:04.329Z,87.05
2017-02-01T03:36:04.703Z,86.97
2017-02-01T03:37:05.230Z,86.71
2017-02-01T03:38:05.771Z,87.10
2017-02-01T03:39:06.425Z,86.84
2017-02-01T03:40:06.931Z,86.81
2017-02-01T03:41:07.437Z,86.94
2017-02-01T03:42:07.815Z,86.94
2017-02-01T03:43:08.476Z,86.87
2017-02-01T03:44:08.869Z,87.02
2017-02-01T03:45:09.672Z,86.87
2017-02-01T03:46:10.048Z,86.76
2017-02-01T03:47:10.421Z,86.81
2017-02-01T03:48:11.082Z,86.65
2017-02-01T03:49:11.447Z,86.52
2017-02-01T03:50:11.974Z,86.60
2017-02-01T03:51:12.497Z,86.79
2017-02-01T03:52:13.152Z,86.81
2017-02-01T03:53:13.546Z,86.65
2017-02-01T03:54:14.187Z,86.54
2017-02-01T03:55:14.563Z,86.68
2017-02-01T03:56:15.227Z,86.79
2017-02-01T03:57:15.610Z,86.65
2017-02-01T03:58:16.125Z,86.63
2017-02-01T03:59:16.783Z,86.63
2017-02-01T04:00:17.302Z,86.46
2017-02-01T04:01:17.831Z,86.71
2017-02-01T04:02:18.213Z,86.54
2017-02-01T04:03:18.716Z,86.60
2017-02-01T04:04:19.262Z,86.79
2017-02-01T04:05:19.913Z,86.57
2017-02-01T04:06:20.310Z,86.79
2017-02-01T04:07:20.987Z,86.89
2017-02-01T04:08:21.331Z,86.65
2017-02-01T04:09:21.867Z,86.97
2017-02-01T04:10:22.526Z,86.81
2017-02-01T04:11:23.034Z,86.89
2017-02-01T04:12:23.419Z,86.91
2017-02-01T04:13:24.084Z,86.97
2017-02-01T04:14:24.447Z,86.79
2017-02-01T04:15:25.111Z,86.52
2017-02-01T04:16:25.515Z,86.65
2017-02-01T04:17:26.016Z,86.68
2017-02-01T04:18:26.543Z,86.44
2017-02-01T04:19:27.051Z,86.60
2017-02-01T04:20:27.702Z,86.76
2017-02-01T04:21:28.083Z,86.52
2017-02-01T04:22:28.604Z,86.52
2017-02-01T04:23:29.261Z,86.44
2017-02-01T04:24:29.641Z,86.41
2017-02-01T04:25:30.456Z,86.46
2017-02-01T04:26:30.821Z,86.36
2017-02-01T04:27:31.327Z,85.93
2017-02-01T04:28:31.716Z,86.30
2017-02-01T04:29:32.250Z,86.15
2017-02-01T04:30:32.750Z,86.54
2017-02-01T04:31:33.275Z,86.52
2017-02-01T04:32:33.816Z,86.54
2017-02-01T04:33:34.453Z,86.71
2017-02-01T04:34:34.825Z,86.49
2017-02-01T04:35:35.345Z,86.46
2017-02-01T04:36:35.855Z,86.63
2017-02-01T04:37:36.530Z,86.81
2017-02-01T04:38:36.907Z,86.41
2017-02-01T04:39:37.410Z,86.41
2017-02-01T04:40:37.935Z,86.57
2017-02-01T04:41:38.453Z,86.54
2017-02-01T04:42:38.971Z,86.60
2017-02-01T04:43:39.488Z,86.65
2017-02-01T04:44:40.009Z,86.17
2017-02-01T04:45:40.529Z,85.88
2017-02-01T04:46:41.060Z,85.61
2017-02-01T04:47:41.728Z,85.56
2017-02-01T04:48:42.242Z,85.61
2017-02-01T04:49:42.761Z,85.66
2017-02-01T04:50:43.144Z,85.32
2017-02-01T04:51:43.654Z,85.24
2017-02-01T04:52:44.323Z,85.30
2017-02-01T04:53:44.840Z,85.61
2017-02-01T04:54:45.377Z,85.46
2017-02-01T04:55:46.035Z,85.61
2017-02-01T04:56:46.403Z,85.35
2017-02-01T04:57:46.770Z,85.27
2017-02-01T04:58:47.454Z,85.46
2017-02-01T04:59:47.987Z,85.21
2017-02-01T05:00:48.335Z,85.40
2017-02-01T05:01:48.876Z,85.53
2017-02-01T05:02:49.522Z,84.71
2017-02-01T05:03:50.048Z,84.89
2017-02-01T05:04:50.559Z,84.81
2017-02-01T05:05:51.252Z,84.79
2017-02-01T05:06:51.473Z,84.87
2017-02-01T05:07:51.968Z,84.87
2017-02-01T05:08:52.499Z,85.05
2017-02-01T05:09:53.018Z,84.66
2017-02-01T05:10:53.538Z,84.87
2017-02-01T05:11:54.188Z,84.60
2017-02-01T05:12:54.591Z,84.71
2017-02-01T05:13:55.256Z,84.76
2017-02-01T05:14:55.660Z,84.92
2017-02-01T05:15:56.145Z,84.87
2017-02-01T05:16:56.659Z,84.89
2017-02-01T05:17:57.301Z,85.00
2017-02-01T05:18:57.680Z,85.05
2017-02-01T05:19:58.338Z,85.43
2017-02-01T05:20:58.868Z,85.32
2017-02-01T05:21:59.399Z,85.19
2017-02-01T05:22:59.899Z,85.16
2017-02-01T05:24:00.273Z,85.11
2017-02-01T05:25:00.811Z,85.08
2017-02-01T05:26:01.468Z,85.32
2017-02-01T05:27:01.988Z,85.38
2017-02-01T05:28:02.508Z,85.53
2017-02-01T05:29:03.028Z,85.38
2017-02-01T05:30:03.408Z,85.21
2017-02-01T05:31:03.914Z,85.13
2017-02-01T05:32:04.595Z,85.43
2017-02-01T05:33:05.117Z,85.43
2017-02-01T05:34:05.487Z,85.35
2017-02-01T05:35:05.996Z,85.61
2017-02-01T05:36:06.534Z,85.61
2017-02-01T05:37:07.197Z,84.95
2017-02-01T05:38:07.571Z,84.79
2017-02-01T05:39:08.242Z,85.11
2017-02-01T05:40:08.757Z,85.13
2017-02-01T05:41:09.276Z,85.35
2017-02-01T05:42:09.653Z,85.35
2017-02-01T05:43:10.173Z,85.43
2017-02-01T05:44:10.694Z,85.46
2017-02-01T05:45:11.351Z,85.50
2017-02-01T05:46:11.906Z,85.58
2017-02-01T05:47:12.403Z,85.56
2017-02-01T05:48:12.761Z,84.60
2017-02-01T05:49:13.280Z,84.89
2017-02-01T05:50:13.943Z,84.76
2017-02-01T05:51:14.324Z,84.58
2017-02-01T05:52:14.837Z,84.92
2017-02-01T05:53:15.360Z,84.74
2017-02-01T05:54:15.877Z,85.05
2017-02-01T05:55:16.704Z,84.87
2017-02-01T05:56:16.926Z,85.16
2017-02-01T05:57:17.586Z,85.30
2017-02-01T05:58:17.953Z,85.64
2017-02-01T05:59:18.779Z,85.00
2017-02-01T06:00:18.992Z,84.92
2017-02-01T06:01:19.505Z,84.39
2017-02-01T06:02:20.177Z,84.31
2017-02-01T06:03:20.699Z,84.17
2017-02-01T06:04:21.212Z,84.28
2017-02-01T06:05:21.747Z,84.55
2017-02-01T06:06:22.260Z,84.87
2017-02-01T06:07:22.773Z,84.60
2017-02-01T06:08:23.289Z,84.42
2017-02-01T06:09:23.814Z,84.55
2017-02-01T06:10:24.335Z,84.34
2017-02-01T06:11:24.712Z,83.25
2017-02-01T06:12:25.246Z,83.94
2017-02-01T06:13:25.910Z,83.22
2017-02-01T06:14:26.269Z,83.25
2017-02-01T06:15:26.942Z,83.54
2017-02-01T06:16:27.471Z,83.44
2017-02-01T06:17:27.830Z,83.14
2017-02-01T06:18:28.367Z,83.59
2017-02-01T06:19:29.036Z,83.73
2017-02-01T06:20:29.404Z,83.97
2017-02-01T06:21:29.922Z,83.97
2017-02-01T06:22:30.430Z,83.78
2017-02-01T06:23:30.965Z,83.91
2017-02-01T06:24:31.482Z,83.75
2017-02-01T06:25:32.148Z,83.67
2017-02-01T06:26:32.661Z,83.46
2017-02-01T06:27:33.341Z,83.65
2017-02-01T06:28:33.709Z,83.91
2017-02-01T06:29:34.219Z,83.91
2017-02-01T06:30:34.613Z,84.05
2017-02-01T06:31:35.133Z,83.91
2017-02-01T06:32:35.640Z,84.09
2017-02-01T06:33:36.305Z,83.91
2017-02-01T06:34:36.815Z,83.59
2017-02-01T06:35:37.200Z,84.09
2017-02-01T06:36:37.865Z,83.78
2017-02-01T06:37:38.240Z,83.78
2017-02-01T06:38:38.899Z,84.09
2017-02-01T06:39:39.426Z,84.26
2017-02-01T06:40:39.939Z,84.17
2017-02-01T06:41:40.315Z,84.31
2017-02-01T06:42:40.967Z,84.47
2017-02-01T06:43:41.340Z,84.39
2017-02-01T06:44:41.882Z,84.60
2017-02-01T06:45:42.393Z,84.28
2017-02-01T06:46:43.045Z,84.58
2017-02-01T06:47:43.434Z,84.34
2017-02-01T06:48:43.947Z,84.31
2017-02-01T06:49:44.610Z,84.17
2017-02-01T06:50:44.983Z,84.68
2017-02-01T06:51:45.657Z,84.74
2017-02-01T06:52:46.185Z,83.75
2017-02-01T06:53:46.705Z,84.05
2017-02-01T06:54:47.244Z,84.07
2017-02-01T06:55:47.744Z,84.26
2017-02-01T06:56:48.260Z,84.31
2017-02-01T06:57:48.644Z,83.91
2017-02-01T06:58:49.295Z,84.09
2017-02-01T06:59:49.685Z,83.97
2017-02-01T07:00:50.208Z,83.73
2017-02-01T07:01:50.720Z,84.26
2017-02-01T07:02:51.398Z,84.17
2017-02-01T07:03:51.768Z,83.97
2017-02-01T07:04:52.283Z,83.70
2017-02-01T07:05:52.940Z,83.78
2017-02-01T07:06:53.475Z,83.73
2017-02-01T07:07:54.129Z,83.78
2017-02-01T07:08:54.350Z,83.28
2017-02-01T07:09:55.020Z,83.51
2017-02-01T07:10:55.535Z,83.51
2017-02-01T07:11:55.913Z,83.78
2017-02-01T07:12:56.429Z,83.78
2017-02-01T07:13:56.947Z,83.91
2017-02-01T07:14:57.613Z,83.99
2017-02-01T07:15:57.995Z,84.02
2017-02-01T07:16:58.519Z,83.73
2017-02-01T07:17:59.028Z,83.70
2017-02-01T07:18:59.559Z,83.57
2017-02-01T07:20:00.076Z,83.78
2017-02-01T07:21:00.599Z,83.67
2017-02-01T07:22:01.117Z,83.33
2017-02-01T07:23:01.638Z,83.38
2017-02-01T07:24:02.291Z,83.22
2017-02-01T07:25:02.803Z,83.22
2017-02-01T07:26:03.168Z,83.33
2017-02-01T07:27:03.700Z,83.65
2017-02-01T07:28:04.204Z,83.51
2017-02-01T07:29:04.734Z,83.78
2017-02-01T07:30:05.388Z,83.65
2017-02-01T07:31:05.780Z,84.02
2017-02-01T07:32:06.300Z,83.94
2017-02-01T07:33:06.812Z,84.15
2017-02-01T07:34:07.339Z,84.42
2017-02-01T07:35:07.849Z,84.23
2017-02-01T07:36:08.376Z,83.94
2017-02-01T07:37:09.033Z,83.94
2017-02-01T07:38:09.415Z,84.12
2017-02-01T07:39:09.926Z,84.09
2017-02-01T07:40:10.450Z,83.65
2017-02-01T07:41:10.983Z,83.59
2017-02-01T07:42:11.482Z,83.94
2017-02-01T07:43:12.154Z,84.05
2017-02-01T07:44:12.663Z,84.05
2017-02-01T07:45:13.181Z,83.99
2017-02-01T07:46:13.564Z,83.89
2017-02-01T07:47:14.088Z,84.17
2017-02-01T07:48:14.766Z,84.05
2017-02-01T07:49:15.409Z,83.97
2017-02-01T07:50:15.644Z,83.89
2017-02-01T07:51:16.297Z,84.12
2017-02-01T07:52:16.684Z,83.83
2017-02-01T07:53:17.366Z,83.49
2017-02-01T07:54:17.885Z,83.51
2017-02-01T07:55:18.364Z,83.97
2017-02-01T07:56:18.896Z,83.86
2017-02-01T07:57:19.287Z,83.75
2017-02-01T07:58:19.794Z,83.89
2017-02-01T07:59:20.313Z,83.67
2017-02-01T08:00:20.827Z,83.51
2017-02-01T08:01:21.346Z,83.73
2017-02-01T08:02:22.005Z,83.97
2017-02-01T08:03:22.378Z,83.97
2017-02-01T08:04:22.903Z,83.78
2017-02-01T08:05:23.430Z,83.65
2017-02-01T08:06:23.953Z,83.57
2017-02-01T08:07:24.600Z,82.67
2017-02-01T08:08:24.985Z,83.12
2017-02-01T08:09:25.641Z,82.61
2017-02-01T08:10:26.016Z,82.98
2017-02-01T08:11:26.542Z,82.53
2017-02-01T08:12:27.068Z,83.06
2017-02-01T08:13:27.723Z,82.64
2017-02-01T08:14:28.245Z,82.93
2017-02-01T08:15:28.618Z,82.98
2017-02-01T08:16:29.293Z,83.06
2017-02-01T08:17:29.810Z,83.30
2017-02-01T08:18:30.333Z,83.25
2017-02-01T08:19:30.713Z,83.12
2017-02-01T08:20:31.367Z,83.28
2017-02-01T08:21:31.886Z,83.09
2017-02-01T08:22:32.409Z,83.54
2017-02-01T08:23:32.923Z,83.17
2017-02-01T08:24:33.303Z,83.12
2017-02-01T08:25:33.957Z,83.30
2017-02-01T08:26:34.345Z,83.28
2017-02-01T08:27:34.998Z,82.93
2017-02-01T08:28:35.581Z,82.80
2017-02-01T08:29:36.185Z,82.77
2017-02-01T08:30:36.418Z,83.14
2017-02-01T08:31:36.936Z,82.93
2017-02-01T08:32:37.595Z,83.06
2017-02-01T08:33:38.115Z,83.28
2017-02-01T08:34:38.654Z,82.61
2017-02-01T08:35:39.013Z,82.77
2017-02-01T08:36:39.539Z,82.64
2017-02-01T08:37:40.047Z,82.80
2017-02-01T08:38:40.586Z,82.56
2017-02-01T08:39:41.088Z,82.29
2017-02-01T08:40:41.774Z,82.16
2017-02-01T08:41:42.130Z,82.48
2017-02-01T08:42:42.650Z,82.37
2017-02-01T08:43:43.179Z,82.75
2017-02-01T08:44:43.838Z,82.53
2017-02-01T08:45:44.225Z,82.75
2017-02-01T08:46:44.871Z,82.88
2017-02-01T08:47:45.390Z,82.88
2017-02-01T08:48:45.911Z,82.77
2017-02-01T08:49:46.292Z,82.61
2017-02-01T08:50:46.974Z,82.93
2017-02-01T08:51:47.472Z,82.56
2017-02-01T08:52:47.845Z,82.00
2017-02-01T08:53:48.507Z,82.59
2017-02-01T08:54:48.889Z,82.27
2017-02-01T08:55:49.423Z,81.98
2017-02-01T08:56:49.942Z,81.98
2017-02-01T08:57:50.460Z,82.29
2017-02-01T08:58:50.975Z,82.24
2017-02-01T08:59:51.513Z,82.11
2017-02-01T09:00:52.013Z,82.08
2017-02-01T09:01:52.667Z,82.48
2017-02-01T09:02:53.192Z,82.14
2017-02-01T09:03:53.572Z,81.95
2017-02-01T09:04:54.092Z,82.53
2017-02-01T09:05:54.597Z,82.35
2017-02-01T09:06:55.270Z,82.69
2017-02-01T09:07:55.792Z,82.56
2017-02-01T09:08:56.308Z,82.35
2017-02-01T09:09:56.977Z,81.87
2017-02-01T09:10:57.348Z,82.43
2017-02-01T09:11:57.703Z,82.14
2017-02-01T09:12:58.374Z,82.35
2017-02-01T09:13:58.743Z,82.35
2017-02-01T09:14:59.270Z,81.98
2017-02-01T09:15:59.777Z,82.16
2017-02-01T09:17:00.320Z,82.16
2017-02-01T09:18:00.836Z,82.00
2017-02-01T09:19:01.381Z,82.03
2017-02-01T09:20:02.002Z,82.21
2017-02-01T09:21:02.529Z,82.53
2017-02-01T09:22:02.898Z,82.61
2017-02-01T09:23:03.414Z,82.43
2017-02-01T09:24:04.088Z,82.37
2017-02-01T09:25:04.603Z,82.08
2017-02-01T09:26:05.122Z,82.19
2017-02-01T09:27:05.502Z,81.24
2017-02-01T09:28:06.159Z,80.87
2017-02-01T09:29:06.679Z,80.65
2017-02-01T09:30:07.052Z,80.68
2017-02-01T09:31:07.590Z,80.65
2017-02-01T09:32:08.231Z,80.71
2017-02-01T09:33:08.751Z,80.68
2017-02-01T09:34:09.284Z,81.21
2017-02-01T09:35:09.648Z,81.21
2017-02-01T09:36:10.318Z,81.18
2017-02-01T09:37:10.697Z,81.48
2017-02-01T09:38:11.373Z,80.94
2017-02-01T09:39:11.753Z,80.71
2017-02-01T09:40:12.273Z,81.40
2017-02-01T09:41:12.792Z,81.18
2017-02-01T09:42:13.444Z,81.76
2017-02-01T09:43:13.830Z,81.42
2017-02-01T09:44:14.363Z,81.58
2017-02-01T09:45:14.858Z,81.40
2017-02-01T09:46:15.373Z,81.32
2017-02-01T09:47:15.923Z,80.33
2017-02-01T09:48:16.555Z,80.05
2017-02-01T09:49:17.084Z,80.31
2017-02-01T09:50:17.616Z,80.07
2017-02-01T09:51:18.123Z,80.26
2017-02-01T09:52:18.622Z,80.21
2017-02-01T09:53:19.038Z,80.33
2017-02-01T09:54:19.677Z,80.52
2017-02-01T09:55:20.042Z,80.39
2017-02-01T09:56:20.566Z,80.71
2017-02-01T09:57:21.091Z,80.41
2017-02-01T09:58:21.740Z,79.94
2017-02-01T09:59:22.134Z,80.05
2017-02-01T10:00:22.634Z,80.29
2017-02-01T10:01:23.170Z,80.15
2017-02-01T10:02:23.678Z,80.26
2017-02-01T10:03:24.208Z,80.31
2017-02-01T10:04:24.725Z,79.89
2017-02-01T10:05:25.240Z,79.89
2017-02-01T10:06:25.755Z,79.81
2017-02-01T10:07:26.273Z,79.81
2017-02-01T10:08:26.785Z,79.91
2017-02-01T10:09:27.313Z,79.79
2017-02-01T10:10:27.973Z,79.86
2017-02-01T10:11:28.355Z,79.41
2017-02-01T10:12:29.002Z,79.23
2017-02-01T10:13:29.390Z,78.54
2017-02-01T10:14:30.045Z,78.97
2017-02-01T10:15:30.426Z,78.47
2017-02-01T10:16:30.949Z,78.31
2017-02-01T10:17:31.455Z,78.78
2017-02-01T10:18:32.118Z,78.44
2017-02-01T10:19:32.646Z,78.36
2017-02-01T10:20:33.034Z,78.91
2017-02-01T10:21:33.558Z,78.33
2017-02-01T10:22:34.214Z,78.47
2017-02-01T10:23:34.743Z,79.13
2017-02-01T10:24:35.266Z,79.28
2017-02-01T10:25:35.632Z,79.10
2017-02-01T10:26:36.152Z,78.81
2017-02-01T10:27:36.809Z,79.23
2017-02-01T10:28:37.339Z,79.44
2017-02-01T10:29:37.708Z,78.86
2017-02-01T10:30:38.414Z,79.28
2017-02-01T10:31:38.921Z,78.86
2017-02-01T10:32:39.270Z,78.54
2017-02-01T10:33:39.922Z,78.47
2017-02-01T10:34:40.442Z,78.36
2017-02-01T10:35:40.826Z,79.05
2017-02-01T10:36:41.475Z,78.09
2017-02-01T10:37:41.859Z,78.78
2017-02-01T10:38:42.368Z,78.59
2017-02-01T10:39:42.895Z,78.36
2017-02-01T10:40:43.409Z,77.59
2017-02-01T10:41:44.072Z,77.91
2017-02-01T10:42:44.596Z,78.07
2017-02-01T10:43:44.983Z,77.99
2017-02-01T10:44:45.624Z,77.75
2017-02-01T10:45:46.030Z,77.81
2017-02-01T10:46:46.529Z,77.62
2017-02-01T10:47:47.051Z,77.25
2017-02-01T10:48:47.575Z,77.39
2017-02-01T10:49:48.078Z,77.39
2017-02-01T10:50:48.596Z,77.28
2017-02-01T10:51:49.128Z,77.36
2017-02-01T10:52:49.776Z,77.36
2017-02-01T10:53:50.303Z,77.94
2017-02-01T10:54:50.831Z,77.62
2017-02-01T10:55:51.343Z,77.78
2017-02-01T10:56:51.727Z,77.83
2017-02-01T10:57:52.244Z,77.33
2017-02-01T10:58:52.897Z,77.54
2017-02-01T10:59:53.289Z,77.20
2017-02-01T11:00:53.803Z,76.91
2017-02-01T11:01:54.322Z,76.54
2017-02-01T11:02:54.846Z,76.83
2017-02-01T11:03:55.373Z,77.20
2017-02-01T11:04:56.031Z,76.49
2017-02-01T11:05:56.410Z,76.41
2017-02-01T11:06:56.925Z,76.73
2017-02-01T11:07:57.469Z,77.07
2017-02-01T11:08:57.975Z,76.23
2017-02-01T11:09:58.633Z,76.49
2017-02-01T11:10:59.006Z,76.62
2017-02-01T11:11:59.686Z,76.67
2017-02-01T11:13:00.189Z,76.41
2017-02-01T11:14:00.716Z,76.60
2017-02-01T11:15:01.091Z,76.86
2017-02-01T11:16:01.609Z,76.28
2017-02-01T11:17:02.289Z,76.18
2017-02-01T11:18:02.651Z,75.81
2017-02-01T11:19:03.300Z,75.89
2017-02-01T11:20:03.675Z,75.62
2017-02-01T11:21:04.353Z,76.52
2017-02-01T11:22:04.719Z,76.65
2017-02-01T11:23:05.239Z,76.52
2017-02-01T11:24:05.899Z,75.52
2017-02-01T11:25:06.417Z,76.15
2017-02-01T11:26:06.940Z,75.99
2017-02-01T11:27:07.451Z,76.54
2017-02-01T11:28:07.973Z,76.89
2017-02-01T11:29:08.487Z,76.75
2017-02-01T11:30:08.872Z,76.62
2017-02-01T11:31:09.529Z,76.62
2017-02-01T11:32:10.057Z,76.57
2017-02-01T11:33:10.425Z,76.26
2017-02-01T11:34:11.112Z,76.46
2017-02-01T11:35:11.604Z,76.28
2017-02-01T11:36:11.996Z,76.15
2017-02-01T11:37:12.500Z,76.15
2017-02-01T11:38:13.169Z,76.75
2017-02-01T11:39:13.542Z,76.44
2017-02-01T11:40:14.206Z,76.60
2017-02-01T11:41:14.725Z,76.36
2017-02-01T11:42:15.243Z,76.49
2017-02-01T11:43:15.615Z,75.81
2017-02-01T11:44:16.145Z,75.68
2017-02-01T11:45:16.715Z,76.34
2017-02-01T11:46:17.190Z,75.76
2017-02-01T11:47:17.860Z,75.41
2017-02-01T11:48:18.370Z,76.12
2017-02-01T11:49:18.887Z,75.39
2017-02-01T11:50:19.409Z,75.78
2017-02-01T11:51:19.799Z,76.44
2017-02-01T11:52:20.597Z,75.84
2017-02-01T11:53:20.999Z,75.96
2017-02-01T11:54:21.344Z,75.96
2017-02-01T11:55:21.875Z,75.68
2017-02-01T11:56:22.523Z,75.60
2017-02-01T11:57:22.899Z,75.62
2017-02-01T11:58:23.436Z,75.52
2017-02-01T11:59:24.098Z,75.62
2017-02-01T12:00:24.457Z,75.70
2017-02-01T12:01:25.114Z,75.37
2017-02-01T12:02:25.498Z,75.60
2017-02-01T12:03:26.037Z,75.78
2017-02-01T12:04:26.677Z,75.92
2017-02-01T12:05:27.189Z,75.62
2017-02-01T12:06:27.717Z,75.86
2017-02-01T12:07:28.086Z,74.55
2017-02-01T12:08:28.756Z,74.89
2017-02-01T12:09:29.272Z,74.71
2017-02-01T12:10:29.790Z,75.07
2017-02-01T12:11:30.310Z,74.94
2017-02-01T12:12:30.828Z,74.66
2017-02-01T12:13:31.349Z,74.08
2017-02-01T12:14:31.741Z,74.08
2017-02-01T12:15:32.387Z,73.16
2017-02-01T12:16:32.765Z,73.71
2017-02-01T12:17:33.417Z,73.82
2017-02-01T12:18:33.812Z,73.79
2017-02-01T12:19:34.313Z,73.82
2017-02-01T12:20:34.839Z,73.95
2017-02-01T12:21:35.355Z,73.58
2017-02-01T12:22:35.873Z,73.87
2017-02-01T12:23:36.531Z,74.08
2017-02-01T12:24:37.061Z,74.55
2017-02-01T12:25:37.596Z,74.97
2017-02-01T12:26:37.965Z,74.44
2017-02-01T12:27:38.484Z,73.66
2017-02-01T12:28:39.148Z,74.13
2017-02-01T12:29:39.531Z,74.00
2017-02-01T12:30:40.048Z,73.95
2017-02-01T12:31:40.740Z,74.13
2017-02-01T12:32:41.241Z,73.77
2017-02-01T12:33:41.596Z,74.58
2017-02-01T12:34:42.262Z,73.69
2017-02-01T12:35:42.782Z,73.22
2017-02-01T12:36:43.297Z,73.89
2017-02-01T12:37:43.674Z,73.74
2017-02-01T12:38:44.196Z,73.53
2017-02-01T12:39:44.704Z,74.08
2017-02-01T12:40:45.235Z,73.71
2017-02-01T12:41:45.757Z,73.89
2017-02-01T12:42:46.274Z,73.32
2017-02-01T12:43:46.924Z,73.42
2017-02-01T12:44:47.309Z,73.55
2017-02-01T12:45:47.971Z,73.82
2017-02-01T12:46:48.343Z,74.16
2017-02-01T12:47:48.905Z,73.89
2017-02-01T12:48:49.532Z,74.11
2017-02-01T12:49:50.060Z,73.95
2017-02-01T12:50:50.568Z,74.40
2017-02-01T12:51:50.957Z,74.11
2017-02-01T12:52:51.616Z,74.32
2017-02-01T12:53:52.140Z,74.29
2017-02-01T12:54:52.520Z,73.50
2017-02-01T12:55:53.038Z,74.47
2017-02-01T12:56:53.540Z,74.76
2017-02-01T12:57:54.064Z,73.95
2017-02-01T12:58:54.609Z,74.63